sensor_id;sensor_type;location;lat;lon;timestamp;P1;durP1;ratioP1;P2;durP2;ratioP2
67344;SDS011;54230;52.402;6.276;2023-12-14T00:00:00;15.1;;;8.2;;
67344;SDS011;54230;52.402;6.276;2023-12-14T00:05:00;14.5;;;7.8;;
67344;SDS011;54230;52.402;6.276;2023-12-14T00:10:00;14.0;;;7.8;;
67344;SDS011;54230;52.402;6.276;2023-12-14T00:15:00;14.8;;;7.6;;
67344;SDS011;54230;52.402;6.276;2023-12-14T00:20:00;14.0;;;7.6;;
67344;SDS011;54230;52.402;6.276;2023-12-14T00:25:00;14.4;;;8.2;;
67344;SDS011;54230;52.402;6.276;2023-12-14T00:30:00;13.6;;;7.1;;
67344;SDS011;54230;52.402;6.276;2023-12-14T00:35:00;13.1;;;7.6;;
67344;SDS011;54230;52.402;6.276;2023-12-14T00:40:00;13.5;;;7.5;;
67344;SDS011;54230;52.402;6.276;2023-12-14T00:45:00;13.1;;;7.1;;
67344;SDS011;54230;52.402;6.276;2023-12-14T00:50:00;13.4;;;7.3;;
67344;SDS011;54230;52.402;6.276;2023-12-14T00:55:00;12.5;;;7.3;;
67344;SDS011;54230;52.402;6.276;2023-12-14T01:00:00;12.4;;;7.1;;
67344;SDS011;54230;52.402;6.276;2023-12-14T01:05:00;13.8;;;7.7;;
67344;SDS011;54230;52.402;6.276;2023-12-14T01:10:00;13.6;;;7.7;;
67344;SDS011;54230;52.402;6.276;2023-12-14T01:15:00;12.8;;;7.4;;
67344;SDS011;54230;52.402;6.276;2023-12-14T01:20:00;13.8;;;7.8;;
67344;SDS011;54230;52.402;6.276;2023-12-14T01:25:00;14.0;;;8.1;;
67344;SDS011;54230;52.402;6.276;2023-12-14T01:30:00;13.1;;;7.8;;
67344;SDS011;54230;52.402;6.276;2023-12-14T01:35:00;14.5;;;7.8;;
67344;SDS011;54230;52.402;6.276;2023-12-14T01:40:00;14.7;;;8.0;;
67344;SDS011;54230;52.402;6.276;2023-12-14T01:45:00;13.8;;;8.5;;
67344;SDS011;54230;52.402;6.276;2023-12-14T01:50:00;13.9;;;8.1;;
67344;SDS011;54230;52.402;6.276;2023-12-14T01:55:00;14.1;;;8.2;;
67344;SDS011;54230;52.402;6.276;2023-12-14T02:00:00;13.2;;;7.6;;
67344;SDS011;54230;52.402;6.276;2023-12-14T02:05:00;13.3;;;7.9;;
67344;SDS011;54230;52.402;6.276;2023-12-14T02:10:00;14.0;;;7.8;;
67344;SDS011;54230;52.402;6.276;2023-12-14T02:15:00;13.5;;;7.8;;
67344;SDS011;54230;52.402;6.276;2023-12-14T02:20:00;13.5;;;8.2;;
67344;SDS011;54230;52.402;6.276;2023-12-14T02:25:00;14.3;;;8.3;;
67344;SDS011;54230;52.402;6.276;2023-12-14T02:30:00;14.2;;;8.7;;
67344;SDS011;54230;52.402;6.276;2023-12-14T02:35:00;14.3;;;8.2;;
67344;SDS011;54230;52.402;6.276;2023-12-14T02:40:00;16.4;;;8.9;;
67344;SDS011;54230;52.402;6.276;2023-12-14T02:45:00;14.4;;;8.3;;
67344;SDS011;54230;52.402;6.276;2023-12-14T02:50:00;13.7;;;8.2;;
67344;SDS011;54230;52.402;6.276;2023-12-14T02:55:00;13.4;;;7.9;;
67344;SDS011;54230;52.402;6.276;2023-12-14T03:00:00;13.3;;;7.9;;
67344;SDS011;54230;52.402;6.276;2023-12-14T03:05:00;13.9;;;7.7;;
67344;SDS011;54230;52.402;6.276;2023-12-14T03:10:00;13.5;;;7.7;;
67344;SDS011;54230;52.402;6.276;2023-12-14T03:15:00;14.2;;;7.3;;
67344;SDS011;54230;52.402;6.276;2023-12-14T03:20:00;12.5;;;7.1;;
67344;SDS011;54230;52.402;6.276;2023-12-14T03:25:00;13.8;;;6.9;;
67344;SDS011;54230;52.402;6.276;2023-12-14T03:30:00;14.4;;;7.2;;
67344;SDS011;54230;52.402;6.276;2023-12-14T03:35:00;12.4;;;6.9;;
67344;SDS011;54230;52.402;6.276;2023-12-14T03:40:00;13.0;;;6.8;;
67344;SDS011;54230;52.402;6.276;2023-12-14T03:45:00;13.0;;;7.0;;
67344;SDS011;54230;52.402;6.276;2023-12-14T03:50:00;13.4;;;7.4;;
67344;SDS011;54230;52.402;6.276;2023-12-14T03:55:00;12.4;;;6.9;;
67344;SDS011;54230;52.402;6.276;2023-12-14T04:00:00;12.5;;;6.8;;
67344;SDS011;54230;52.402;6.276;2023-12-14T04:05:00;13.3;;;7.0;;
67344;SDS011;54230;52.402;6.276;2023-12-14T04:10:00;13.0;;;7.2;;
67344;SDS011;54230;52.402;6.276;2023-12-14T04:15:00;13.5;;;7.0;;
67344;SDS011;54230;52.402;6.276;2023-12-14T04:20:00;16.1;;;7.4;;
67344;SDS011;54230;52.402;6.276;2023-12-14T04:25:00;14.5;;;7.7;;
67344;SDS011;54230;52.402;6.276;2023-12-14T04:30:00;16.0;;;7.8;;
67344;SDS011;54230;52.402;6.276;2023-12-14T04:35:00;14.9;;;7.9;;
67344;SDS011;54230;52.402;6.276;2023-12-14T04:40:00;17.8;;;8.1;;
67344;SDS011;54230;52.402;6.276;2023-12-14T04:45:00;16.1;;;7.5;;
67344;SDS011;54230;52.402;6.276;2023-12-14T04:50:00;16.6;;;7.4;;
67344;SDS011;54230;52.402;6.276;2023-12-14T04:55:00;15.7;;;7.8;;
67344;SDS011;54230;52.402;6.276;2023-12-14T05:00:00;15.8;;;7.5;;
67344;SDS011;54230;52.402;6.276;2023-12-14T05:05:00;16.6;;;7.7;;
67344;SDS011;54230;52.402;6.276;2023-12-14T05:10:00;16.4;;;7.7;;
67344;SDS011;54230;52.402;6.276;2023-12-14T05:15:00;15.5;;;7.4;;
67344;SDS011;54230;52.402;6.276;2023-12-14T05:20:00;15.6;;;7.7;;
67344;SDS011;54230;52.402;6.276;2023-12-14T05:25:00;14.7;;;7.4;;
67344;SDS011;54230;52.402;6.276;2023-12-14T05:30:00;15.1;;;7.4;;
67344;SDS011;54230;52.402;6.276;2023-12-14T05:35:00;14.6;;;7.5;;
67344;SDS011;54230;52.402;6.276;2023-12-14T05:40:00;16.0;;;7.9;;
67344;SDS011;54230;52.402;6.276;2023-12-14T05:45:00;15.3;;;7.6;;
67344;SDS011;54230;52.402;6.276;2023-12-14T05:50:00;15.0;;;7.3;;
67344;SDS011;54230;52.402;6.276;2023-12-14T05:55:00;14.1;;;7.2;;
67344;SDS011;54230;52.402;6.276;2023-12-14T06:00:00;13.4;;;7.2;;
67344;SDS011;54230;52.402;6.276;2023-12-14T06:05:00;14.5;;;7.1;;
67344;SDS011;54230;52.402;6.276;2023-12-14T06:10:00;12.9;;;6.9;;
67344;SDS011;54230;52.402;6.276;2023-12-14T06:15:00;14.0;;;6.4;;
67344;SDS011;54230;52.402;6.276;2023-12-14T06:20:00;13.3;;;6.3;;
67344;SDS011;54230;52.402;6.276;2023-12-14T06:25:00;12.9;;;6.8;;
67344;SDS011;54230;52.402;6.276;2023-12-14T06:30:00;13.3;;;6.5;;
67344;SDS011;54230;52.402;6.276;2023-12-14T06:35:00;15.1;;;6.9;;
67344;SDS011;54230;52.402;6.276;2023-12-14T06:40:00;12.1;;;6.2;;
67344;SDS011;54230;52.402;6.276;2023-12-14T06:45:01;15.3;;;6.9;;
67344;SDS011;54230;52.402;6.276;2023-12-14T06:50:00;14.5;;;7.0;;
67344;SDS011;54230;52.402;6.276;2023-12-14T06:55:00;15.0;;;7.0;;
67344;SDS011;54230;52.402;6.276;2023-12-14T07:00:00;12.9;;;6.5;;
67344;SDS011;54230;52.402;6.276;2023-12-14T07:05:00;13.0;;;6.8;;
67344;SDS011;54230;52.402;6.276;2023-12-14T07:10:00;14.9;;;6.9;;
67344;SDS011;54230;52.402;6.276;2023-12-14T07:15:00;14.1;;;7.0;;
67344;SDS011;54230;52.402;6.276;2023-12-14T07:20:00;11.7;;;6.9;;
67344;SDS011;54230;52.402;6.276;2023-12-14T07:25:00;12.6;;;6.9;;
67344;SDS011;54230;52.402;6.276;2023-12-14T07:30:00;12.8;;;6.9;;
67344;SDS011;54230;52.402;6.276;2023-12-14T07:35:00;17.2;;;6.6;;
67344;SDS011;54230;52.402;6.276;2023-12-14T07:40:00;13.4;;;6.7;;
67344;SDS011;54230;52.402;6.276;2023-12-14T07:45:00;16.3;;;6.8;;
67344;SDS011;54230;52.402;6.276;2023-12-14T07:50:00;13.3;;;6.6;;
67344;SDS011;54230;52.402;6.276;2023-12-14T07:55:00;12.9;;;7.3;;
67344;SDS011;54230;52.402;6.276;2023-12-14T08:00:00;12.8;;;6.5;;
67344;SDS011;54230;52.402;6.276;2023-12-14T08:05:00;13.0;;;6.6;;
67344;SDS011;54230;52.402;6.276;2023-12-14T08:10:00;12.0;;;6.3;;
67344;SDS011;54230;52.402;6.276;2023-12-14T08:15:00;13.1;;;6.6;;
67344;SDS011;54230;52.402;6.276;2023-12-14T08:20:00;14.8;;;6.8;;
67344;SDS011;54230;52.402;6.276;2023-12-14T08:25:00;14.6;;;7.5;;
67344;SDS011;54230;52.402;6.276;2023-12-14T08:30:00;13.6;;;6.6;;
67344;SDS011;54230;52.402;6.276;2023-12-14T08:35:00;14.3;;;6.8;;
67344;SDS011;54230;52.402;6.276;2023-12-14T08:40:00;14.9;;;6.4;;
67344;SDS011;54230;52.402;6.276;2023-12-14T08:45:00;12.9;;;6.7;;
67344;SDS011;54230;52.402;6.276;2023-12-14T08:50:00;14.9;;;7.4;;
67344;SDS011;54230;52.402;6.276;2023-12-14T08:55:00;15.8;;;7.3;;
67344;SDS011;54230;52.402;6.276;2023-12-14T09:00:00;16.2;;;7.5;;
67344;SDS011;54230;52.402;6.276;2023-12-14T09:05:00;13.8;;;6.9;;
67344;SDS011;54230;52.402;6.276;2023-12-14T09:10:00;21.7;;;7.7;;
67344;SDS011;54230;52.402;6.276;2023-12-14T09:15:00;16.9;;;7.4;;
67344;SDS011;54230;52.402;6.276;2023-12-14T09:20:00;16.2;;;7.0;;
67344;SDS011;54230;52.402;6.276;2023-12-14T09:25:00;17.1;;;7.5;;
67344;SDS011;54230;52.402;6.276;2023-12-14T09:30:00;15.1;;;7.3;;
67344;SDS011;54230;52.402;6.276;2023-12-14T09:35:00;17.2;;;7.7;;
67344;SDS011;54230;52.402;6.276;2023-12-14T09:40:00;15.3;;;7.4;;
67344;SDS011;54230;52.402;6.276;2023-12-14T09:45:00;14.6;;;6.9;;
67344;SDS011;54230;52.402;6.276;2023-12-14T09:50:00;13.9;;;6.9;;
67344;SDS011;54230;52.402;6.276;2023-12-14T09:55:00;15.0;;;7.2;;
67344;SDS011;54230;52.402;6.276;2023-12-14T10:00:00;14.2;;;7.2;;
67344;SDS011;54230;52.402;6.276;2023-12-14T10:05:00;16.0;;;7.1;;
67344;SDS011;54230;52.402;6.276;2023-12-14T10:10:09;13.7;;;6.6;;
67344;SDS011;54230;52.402;6.276;2023-12-14T10:15:00;14.9;;;6.7;;
67344;SDS011;54230;52.402;6.276;2023-12-14T10:20:00;15.2;;;6.9;;
67344;SDS011;54230;52.402;6.276;2023-12-14T10:25:00;16.6;;;7.4;;
67344;SDS011;54230;52.402;6.276;2023-12-14T10:30:00;13.2;;;7.1;;
67344;SDS011;54230;52.402;6.276;2023-12-14T10:35:00;13.3;;;6.8;;
67344;SDS011;54230;52.402;6.276;2023-12-14T10:40:00;13.9;;;6.8;;
67344;SDS011;54230;52.402;6.276;2023-12-14T10:45:00;15.0;;;6.9;;
67344;SDS011;54230;52.402;6.276;2023-12-14T10:50:00;13.6;;;6.6;;
67344;SDS011;54230;52.402;6.276;2023-12-14T10:55:00;14.3;;;6.8;;
67344;SDS011;54230;52.402;6.276;2023-12-14T11:00:00;14.2;;;6.5;;
67344;SDS011;54230;52.402;6.276;2023-12-14T11:05:00;14.7;;;6.9;;
67344;SDS011;54230;52.402;6.276;2023-12-14T11:10:00;14.7;;;6.5;;
67344;SDS011;54230;52.402;6.276;2023-12-14T11:15:00;14.4;;;6.9;;
67344;SDS011;54230;52.402;6.276;2023-12-14T11:20:03;13.3;;;6.7;;
67344;SDS011;54230;52.402;6.276;2023-12-14T11:25:00;12.8;;;6.8;;
67344;SDS011;54230;52.402;6.276;2023-12-14T11:30:00;13.6;;;6.8;;
67344;SDS011;54230;52.402;6.276;2023-12-14T11:35:00;15.5;;;6.9;;
67344;SDS011;54230;52.402;6.276;2023-12-14T11:40:00;13.5;;;6.8;;
67344;SDS011;54230;52.402;6.276;2023-12-14T11:45:00;15.3;;;7.5;;
67344;SDS011;54230;52.402;6.276;2023-12-14T11:50:00;13.9;;;6.7;;
67344;SDS011;54230;52.402;6.276;2023-12-14T11:55:00;13.3;;;6.6;;
67344;SDS011;54230;52.402;6.276;2023-12-14T12:00:00;13.2;;;6.9;;
67344;SDS011;54230;52.402;6.276;2023-12-14T12:05:00;13.5;;;6.7;;
67344;SDS011;54230;52.402;6.276;2023-12-14T12:10:00;15.5;;;7.0;;
67344;SDS011;54230;52.402;6.276;2023-12-14T12:15:00;13.9;;;7.3;;
67344;SDS011;54230;52.402;6.276;2023-12-14T12:20:00;14.0;;;7.1;;
67344;SDS011;54230;52.402;6.276;2023-12-14T12:25:00;14.1;;;7.0;;
67344;SDS011;54230;52.402;6.276;2023-12-14T12:30:00;13.5;;;6.4;;
67344;SDS011;54230;52.402;6.276;2023-12-14T12:35:00;12.2;;;6.2;;
67344;SDS011;54230;52.402;6.276;2023-12-14T12:40:00;12.0;;;6.4;;
67344;SDS011;54230;52.402;6.276;2023-12-14T12:45:00;12.5;;;6.5;;
67344;SDS011;54230;52.402;6.276;2023-12-14T12:50:00;11.8;;;6.5;;
67344;SDS011;54230;52.402;6.276;2023-12-14T12:55:00;11.3;;;6.2;;
67344;SDS011;54230;52.402;6.276;2023-12-14T13:00:00;13.0;;;6.7;;
67344;SDS011;54230;52.402;6.276;2023-12-14T13:05:00;12.7;;;6.5;;
67344;SDS011;54230;52.402;6.276;2023-12-14T13:10:00;14.2;;;6.7;;
67344;SDS011;54230;52.402;6.276;2023-12-14T13:15:00;14.4;;;6.8;;
67344;SDS011;54230;52.402;6.276;2023-12-14T13:20:00;15.5;;;6.9;;
67344;SDS011;54230;52.402;6.276;2023-12-14T13:25:00;13.4;;;6.7;;
67344;SDS011;54230;52.402;6.276;2023-12-14T13:30:00;13.4;;;6.4;;
67344;SDS011;54230;52.402;6.276;2023-12-14T13:35:00;13.3;;;6.9;;
67344;SDS011;54230;52.402;6.276;2023-12-14T13:40:00;14.4;;;6.9;;
67344;SDS011;54230;52.402;6.276;2023-12-14T13:45:00;12.9;;;6.3;;
67344;SDS011;54230;52.402;6.276;2023-12-14T13:50:00;14.6;;;6.5;;
67344;SDS011;54230;52.402;6.276;2023-12-14T13:55:00;12.4;;;6.8;;
67344;SDS011;54230;52.402;6.276;2023-12-14T14:00:00;12.9;;;6.8;;
67344;SDS011;54230;52.402;6.276;2023-12-14T14:05:00;13.9;;;6.7;;
67344;SDS011;54230;52.402;6.276;2023-12-14T14:10:00;13.0;;;6.8;;
67344;SDS011;54230;52.402;6.276;2023-12-14T14:15:00;13.0;;;6.9;;
67344;SDS011;54230;52.402;6.276;2023-12-14T14:20:00;12.8;;;6.9;;
67344;SDS011;54230;52.402;6.276;2023-12-14T14:25:00;15.4;;;7.6;;
67344;SDS011;54230;52.402;6.276;2023-12-14T14:30:00;14.3;;;7.2;;
67344;SDS011;54230;52.402;6.276;2023-12-14T14:35:00;15.2;;;6.8;;
67344;SDS011;54230;52.402;6.276;2023-12-14T14:40:00;14.5;;;7.2;;
67344;SDS011;54230;52.402;6.276;2023-12-14T14:45:00;14.5;;;7.3;;
67344;SDS011;54230;52.402;6.276;2023-12-14T14:50:00;18.0;;;9.0;;
67344;SDS011;54230;52.402;6.276;2023-12-14T14:55:00;14.7;;;7.6;;
67344;SDS011;54230;52.402;6.276;2023-12-14T15:00:00;17.9;;;8.5;;
67344;SDS011;54230;52.402;6.276;2023-12-14T15:05:00;15.2;;;7.2;;
67344;SDS011;54230;52.402;6.276;2023-12-14T15:10:00;16.2;;;7.3;;
67344;SDS011;54230;52.402;6.276;2023-12-14T15:15:00;17.7;;;8.6;;
67344;SDS011;54230;52.402;6.276;2023-12-14T15:20:00;18.1;;;9.3;;
67344;SDS011;54230;52.402;6.276;2023-12-14T15:25:00;18.9;;;9.6;;
67344;SDS011;54230;52.402;6.276;2023-12-14T15:30:00;17.0;;;8.1;;
67344;SDS011;54230;52.402;6.276;2023-12-14T15:35:00;15.6;;;7.3;;
67344;SDS011;54230;52.402;6.276;2023-12-14T15:40:00;13.7;;;7.4;;
67344;SDS011;54230;52.402;6.276;2023-12-14T15:45:00;14.8;;;7.4;;
67344;SDS011;54230;52.402;6.276;2023-12-14T15:50:00;17.4;;;8.1;;
67344;SDS011;54230;52.402;6.276;2023-12-14T15:55:00;16.8;;;8.4;;
67344;SDS011;54230;52.402;6.276;2023-12-14T16:00:00;17.1;;;7.8;;
67344;SDS011;54230;52.402;6.276;2023-12-14T16:05:00;15.6;;;7.6;;
67344;SDS011;54230;52.402;6.276;2023-12-14T16:10:00;14.6;;;7.4;;
67344;SDS011;54230;52.402;6.276;2023-12-14T16:15:00;16.7;;;8.0;;
67344;SDS011;54230;52.402;6.276;2023-12-14T16:20:00;17.3;;;8.5;;
67344;SDS011;54230;52.402;6.276;2023-12-14T16:25:00;17.8;;;8.1;;
67344;SDS011;54230;52.402;6.276;2023-12-14T16:30:00;16.2;;;8.0;;
67344;SDS011;54230;52.402;6.276;2023-12-14T16:35:00;17.3;;;7.8;;
67344;SDS011;54230;52.402;6.276;2023-12-14T16:40:00;15.0;;;7.6;;
67344;SDS011;54230;52.402;6.276;2023-12-14T16:45:00;16.3;;;7.7;;
67344;SDS011;54230;52.402;6.276;2023-12-14T16:50:00;18.5;;;8.0;;
67344;SDS011;54230;52.402;6.276;2023-12-14T16:55:00;15.4;;;7.9;;
67344;SDS011;54230;52.402;6.276;2023-12-14T17:00:00;17.2;;;8.2;;
67344;SDS011;54230;52.402;6.276;2023-12-14T17:05:00;17.2;;;8.4;;
67344;SDS011;54230;52.402;6.276;2023-12-14T17:10:00;16.9;;;8.5;;
67344;SDS011;54230;52.402;6.276;2023-12-14T17:15:00;14.7;;;8.3;;
67344;SDS011;54230;52.402;6.276;2023-12-14T17:20:00;17.6;;;8.9;;
67344;SDS011;54230;52.402;6.276;2023-12-14T17:25:00;16.7;;;9.0;;
67344;SDS011;54230;52.402;6.276;2023-12-14T17:30:00;17.5;;;9.3;;
67344;SDS011;54230;52.402;6.276;2023-12-14T17:35:00;17.4;;;9.0;;
67344;SDS011;54230;52.402;6.276;2023-12-14T17:40:00;17.7;;;9.3;;
67344;SDS011;54230;52.402;6.276;2023-12-14T17:45:00;20.6;;;9.4;;
67344;SDS011;54230;52.402;6.276;2023-12-14T17:50:00;21.2;;;10.2;;
67344;SDS011;54230;52.402;6.276;2023-12-14T17:55:00;36.4;;;17.4;;
67344;SDS011;54230;52.402;6.276;2023-12-14T18:00:00;21.3;;;10.8;;
67344;SDS011;54230;52.402;6.276;2023-12-14T18:05:00;19.8;;;10.0;;
67344;SDS011;54230;52.402;6.276;2023-12-14T18:10:00;18.7;;;9.6;;
67344;SDS011;54230;52.402;6.276;2023-12-14T18:15:00;19.9;;;10.1;;
67344;SDS011;54230;52.402;6.276;2023-12-14T18:20:00;21.5;;;10.1;;
67344;SDS011;54230;52.402;6.276;2023-12-14T18:25:00;21.7;;;10.9;;
67344;SDS011;54230;52.402;6.276;2023-12-14T18:30:00;20.7;;;10.5;;
67344;SDS011;54230;52.402;6.276;2023-12-14T18:35:00;20.8;;;10.7;;
67344;SDS011;54230;52.402;6.276;2023-12-14T18:40:00;22.1;;;10.9;;
67344;SDS011;54230;52.402;6.276;2023-12-14T18:45:00;22.8;;;10.9;;
67344;SDS011;54230;52.402;6.276;2023-12-14T18:50:00;22.4;;;10.5;;
67344;SDS011;54230;52.402;6.276;2023-12-14T18:55:00;21.1;;;10.4;;
67344;SDS011;54230;52.402;6.276;2023-12-14T19:00:00;22.2;;;10.6;;
67344;SDS011;54230;52.402;6.276;2023-12-14T19:05:00;21.7;;;10.9;;
67344;SDS011;54230;52.402;6.276;2023-12-14T19:10:00;21.5;;;10.2;;
67344;SDS011;54230;52.402;6.276;2023-12-14T19:15:00;22.8;;;10.7;;
67344;SDS011;54230;52.402;6.276;2023-12-14T19:20:00;22.1;;;10.7;;
67344;SDS011;54230;52.402;6.276;2023-12-14T19:25:00;22.4;;;10.6;;
67344;SDS011;54230;52.402;6.276;2023-12-14T19:30:00;23.7;;;10.7;;
67344;SDS011;54230;52.402;6.276;2023-12-14T19:35:00;25.4;;;11.8;;
67344;SDS011;54230;52.402;6.276;2023-12-14T19:40:00;23.0;;;11.0;;
67344;SDS011;54230;52.402;6.276;2023-12-14T19:45:00;23.4;;;11.3;;
67344;SDS011;54230;52.402;6.276;2023-12-14T19:50:00;31.5;;;14.1;;
67344;SDS011;54230;52.402;6.276;2023-12-14T19:55:00;28.0;;;12.8;;
67344;SDS011;54230;52.402;6.276;2023-12-14T20:00:00;28.6;;;13.1;;
67344;SDS011;54230;52.402;6.276;2023-12-14T20:05:00;27.9;;;12.8;;
67344;SDS011;54230;52.402;6.276;2023-12-14T20:10:00;27.6;;;12.2;;
67344;SDS011;54230;52.402;6.276;2023-12-14T20:15:00;24.6;;;12.2;;
67344;SDS011;54230;52.402;6.276;2023-12-14T20:20:00;28.3;;;12.7;;
67344;SDS011;54230;52.402;6.276;2023-12-14T20:25:00;30.2;;;13.6;;
67344;SDS011;54230;52.402;6.276;2023-12-14T20:30:00;29.3;;;12.8;;
67344;SDS011;54230;52.402;6.276;2023-12-14T20:35:00;28.9;;;13.6;;
67344;SDS011;54230;52.402;6.276;2023-12-14T20:40:05;30.1;;;12.7;;
67344;SDS011;54230;52.402;6.276;2023-12-14T20:45:00;32.6;;;15.3;;
67344;SDS011;54230;52.402;6.276;2023-12-14T20:50:00;27.2;;;13.0;;
67344;SDS011;54230;52.402;6.276;2023-12-14T20:55:00;31.5;;;13.4;;
67344;SDS011;54230;52.402;6.276;2023-12-14T21:00:00;29.6;;;12.4;;
67344;SDS011;54230;52.402;6.276;2023-12-14T21:05:00;29.9;;;13.2;;
67344;SDS011;54230;52.402;6.276;2023-12-14T21:10:00;28.0;;;13.0;;
67344;SDS011;54230;52.402;6.276;2023-12-14T21:15:00;29.4;;;12.9;;
67344;SDS011;54230;52.402;6.276;2023-12-14T21:20:00;29.0;;;12.7;;
67344;SDS011;54230;52.402;6.276;2023-12-14T21:25:00;29.6;;;13.1;;
67344;SDS011;54230;52.402;6.276;2023-12-14T21:30:00;27.2;;;12.4;;
67344;SDS011;54230;52.402;6.276;2023-12-14T21:35:00;29.6;;;12.7;;
67344;SDS011;54230;52.402;6.276;2023-12-14T21:40:00;31.0;;;14.6;;
67344;SDS011;54230;52.402;6.276;2023-12-14T21:45:00;34.3;;;15.2;;
67344;SDS011;54230;52.402;6.276;2023-12-14T21:50:00;29.5;;;14.1;;
67344;SDS011;54230;52.402;6.276;2023-12-14T21:55:00;29.5;;;13.1;;
67344;SDS011;54230;52.402;6.276;2023-12-14T22:00:00;28.9;;;12.1;;
67344;SDS011;54230;52.402;6.276;2023-12-14T22:05:01;27.3;;;11.8;;
67344;SDS011;54230;52.402;6.276;2023-12-14T22:10:00;27.2;;;12.3;;
67344;SDS011;54230;52.402;6.276;2023-12-14T22:15:00;26.2;;;12.1;;
67344;SDS011;54230;52.402;6.276;2023-12-14T22:20:00;28.2;;;11.8;;
67344;SDS011;54230;52.402;6.276;2023-12-14T22:25:00;29.4;;;12.2;;
67344;SDS011;54230;52.402;6.276;2023-12-14T22:30:00;28.3;;;12.2;;
67344;SDS011;54230;52.402;6.276;2023-12-14T22:35:00;28.7;;;11.7;;
67344;SDS011;54230;52.402;6.276;2023-12-14T22:40:00;26.7;;;11.4;;
67344;SDS011;54230;52.402;6.276;2023-12-14T22:45:00;26.3;;;12.0;;
67344;SDS011;54230;52.402;6.276;2023-12-14T22:50:00;26.1;;;11.3;;
67344;SDS011;54230;52.402;6.276;2023-12-14T22:55:00;26.1;;;10.5;;
67344;SDS011;54230;52.402;6.276;2023-12-14T23:00:00;23.0;;;10.6;;
67344;SDS011;54230;52.402;6.276;2023-12-14T23:05:00;25.2;;;10.7;;
67344;SDS011;54230;52.402;6.276;2023-12-14T23:10:00;23.0;;;10.2;;
67344;SDS011;54230;52.402;6.276;2023-12-14T23:15:01;22.1;;;9.8;;
67344;SDS011;54230;52.402;6.276;2023-12-14T23:20:00;21.5;;;10.2;;
67344;SDS011;54230;52.402;6.276;2023-12-14T23:25:00;24.7;;;10.2;;
67344;SDS011;54230;52.402;6.276;2023-12-14T23:30:00;25.2;;;10.5;;
67344;SDS011;54230;52.402;6.276;2023-12-14T23:35:00;21.9;;;10.6;;
67344;SDS011;54230;52.402;6.276;2023-12-14T23:40:00;23.0;;;10.7;;
67344;SDS011;54230;52.402;6.276;2023-12-14T23:45:00;22.8;;;10.1;;
67344;SDS011;54230;52.402;6.276;2023-12-14T23:50:00;22.6;;;10.5;;
67344;SDS011;54230;52.402;6.276;2023-12-14T23:55:00;23.4;;;10.4;;
